Time;durP1;ratioP1;P1;durP2;ratioP2;P2;SDS_P1;SDS_P2;PMS_P1;PMS_P2;Temp;Humidity;BMP_temperature;BMP_pressure;BME280_temperature;BME280_humidity;BME280_pressure;Samples;Min_cycle;Max_cycle;Signal;HPM_P1;HPM_P2
2022/11/24 00:00:09;;;;;;;;;;;7.80;97.10;;;;;;5065777;28;20637;-73
2022/11/24 00:02:35;;;;;;;;;;;7.80;97.00;;;;;;5062210;28;19927;-73
2022/11/24 00:05:00;;;;;;;;;;;7.80;97.00;;;;;;5067909;28;19928;-74
2022/11/24 00:07:26;;;;;;;;;;;7.80;97.10;;;;;;5066388;28;20010;-74
2022/11/24 00:09:51;;;;;;;;;;;7.80;97.10;;;;;;5066697;28;19912;-73
2022/11/24 00:12:17;;;;;;;;;;;7.80;97.10;;;;;;5066385;28;19939;-73
2022/11/24 00:14:42;;;;;;;;;;;7.80;97.10;;;;;;5068768;28;20009;-73
2022/11/24 00:17:07;;;;;;;;;;;7.80;97.20;;;;;;5069953;28;19920;-74
2022/11/24 00:19:33;;;;;;;;;;;7.80;97.20;;;;;;5071740;28;19958;-74
2022/11/24 00:21:58;;;;;;;;;;;7.80;97.20;;;;;;5069292;28;20007;-74
2022/11/24 00:24:24;;;;;;;;;;;7.80;97.30;;;;;;5072095;28;19974;-74
2022/11/24 00:26:49;;;;;;;;;;;7.80;97.20;;;;;;5089436;28;19923;-74
2022/11/24 00:29:15;;;;;;;;;;;7.80;97.20;;;;;;5090692;28;19955;-74
2022/11/24 00:31:41;;;;;;;;;;;7.80;97.10;;;;;;5070413;28;19912;-74
2022/11/24 00:34:11;;;;;;;;;;;7.80;97.10;;;;;;5069742;28;19919;-75
2022/11/24 00:36:37;;;;;;;;;;;7.80;97.10;;;;;;5069962;28;19923;-74
2022/11/24 00:39:09;;;;;;;;;;;7.80;97.20;;;;;;5073551;28;19912;-74
2022/11/24 00:41:34;;;;;;;;;;;7.80;97.20;;;;;;5089768;28;19912;-74
2022/11/24 00:44:00;;;;;;;;;;;7.80;97.20;;;;;;5075930;28;19918;-74
2022/11/24 00:46:25;;;;;;;;;;;7.80;97.10;;;;;;5069827;28;20046;-74
2022/11/24 00:48:51;;;;;;;;;;;7.80;97.50;;;;;;5070088;28;19916;-74
2022/11/24 00:51:17;;;;;;;;;;;7.80;97.10;;;;;;5085604;28;19986;-74
2022/11/24 00:53:43;;;;;;;;;;;7.80;97.10;;;;;;5082098;28;19943;-74
2022/11/24 00:56:09;;;;;;;;;;;7.80;97.20;;;;;;5086019;28;20000;-74
2022/11/24 00:58:35;;;;;;;;;;;7.80;97.40;;;;;;5090497;28;20284;-74
2022/11/24 01:01:03;;;;;;;;;;;7.80;97.30;;;;;;5074562;28;19912;-74
2022/11/24 01:03:28;;;;;;;;;;;7.80;97.30;;;;;;5069881;28;20058;-74
2022/11/24 01:05:54;;;;;;;;;;;7.80;97.20;;;;;;5069621;28;20022;-74
2022/11/24 01:08:19;;;;;;;;;;;7.80;97.20;;;;;;5054154;28;20046;-74
2022/11/24 01:10:45;;;;;;;;;;;7.80;97.10;;;;;;5065167;28;19999;-73
2022/11/24 01:13:12;;;;;;;;;;;7.80;97.10;;;;;;5069890;28;19920;-74
2022/11/24 01:15:37;;;;;;;;;;;7.80;97.40;;;;;;5069719;28;20658;-74
2022/11/24 01:18:03;;;;;;;;;;;7.80;97.30;;;;;;5069572;28;20000;-73
2022/11/24 01:20:29;;;;;;;;;;;7.70;97.10;;;;;;5079158;28;19912;-73
2022/11/24 01:22:54;;;;;;;;;;;7.70;97.10;;;;;;5089863;28;20028;-74
2022/11/24 01:25:20;;;;;;;;;;;7.70;97.30;;;;;;5088762;28;19919;-74
2022/11/24 01:27:45;;;;;;;;;;;7.70;97.30;;;;;;5072665;28;20003;-73
2022/11/24 01:30:10;;;;;;;;;;;7.70;97.10;;;;;;5068971;28;19930;-74
2022/11/24 01:32:36;;;;;;;;;;;7.70;97.10;;;;;;5069361;28;19923;-74
2022/11/24 01:35:02;;;;;;;;;;;7.70;97.20;;;;;;5069096;28;20373;-73
2022/11/24 01:37:27;;;;;;;;;;;7.70;97.40;;;;;;5060627;28;19959;-74
2022/11/24 01:39:53;;;;;;;;;;;7.70;97.20;;;;;;5047691;28;19991;-73
2022/11/24 01:42:18;;;;;;;;;;;7.70;97.20;;;;;;5048484;28;19912;-74
2022/11/24 01:44:44;;;;;;;;;;;7.70;97.20;;;;;;5070505;28;19942;-74
2022/11/24 01:47:28;;;;;;;;;;;7.70;97.10;;;;;;5068632;28;19960;-74
2022/11/24 01:49:55;;;;;;;;;;;7.70;97.20;;;;;;5073453;28;20006;-74
2022/11/24 01:52:25;;;;;;;;;;;7.70;97.10;;;;;;5089134;28;19920;-74
2022/11/24 01:54:53;;;;;;;;;;;7.70;97.10;;;;;;5089009;28;19912;-74
2022/11/24 01:57:24;;;;;;;;;;;7.70;97.10;;;;;;5089112;28;20595;-74
2022/11/24 01:59:52;;;;;;;;;;;7.70;97.40;;;;;;5081396;28;19956;-74
2022/11/24 02:02:18;;;;;;;;;;;7.70;97.10;;;;;;5068416;28;20388;-74
2022/11/24 02:04:44;;;;;;;;;;;7.70;97.20;;;;;;5068795;28;19913;-74
2022/11/24 02:07:10;;;;;;;;;;;7.70;97.20;;;;;;5068496;28;19938;-73
2022/11/24 02:09:50;;;;;;;;;;;7.70;97.10;;;;;;5068170;28;19908;-73
2022/11/24 02:12:15;;;;;;;;;;;7.70;97.00;;;;;;5068657;28;19920;-74
2022/11/24 02:14:41;;;;;;;;;;;7.70;97.10;;;;;;5068489;28;19917;-74
2022/11/24 02:17:07;;;;;;;;;;;7.70;97.10;;;;;;5069290;28;19917;-74
2022/11/24 02:19:40;;;;;;;;;;;7.70;97.10;;;;;;5070139;28;19981;-74
2022/11/24 02:22:16;;;;;;;;;;;7.70;97.10;;;;;;5088709;28;20003;-74
2022/11/24 02:24:46;;;;;;;;;;;7.70;97.20;;;;;;5088519;28;19919;-73
2022/11/24 02:27:12;;;;;;;;;;;7.70;97.00;;;;;;5088480;28;19916;-74
2022/11/24 02:29:38;;;;;;;;;;;7.70;97.10;;;;;;5085485;28;19985;-74
2022/11/24 02:32:06;;;;;;;;;;;7.70;97.30;;;;;;5075427;28;19995;-74
2022/11/24 02:34:31;;;;;;;;;;;7.80;97.10;;;;;;5067274;28;20047;-74
2022/11/24 02:36:57;;;;;;;;;;;7.80;97.10;;;;;;5063193;28;19996;-74
2022/11/24 02:39:22;;;;;;;;;;;7.70;97.10;;;;;;5046301;28;20338;-74
2022/11/24 02:41:56;;;;;;;;;;;7.70;97.10;;;;;;5047881;28;19928;-74
2022/11/24 02:44:25;;;;;;;;;;;7.70;97.10;;;;;;5064973;28;19913;-74
2022/11/24 02:47:04;;;;;;;;;;;7.70;97.10;;;;;;5084284;28;19924;-74
2022/11/24 02:49:30;;;;;;;;;;;7.80;97.10;;;;;;5087248;28;19912;-74
2022/11/24 02:51:55;;;;;;;;;;;7.80;97.20;;;;;;5088043;28;19915;-74
2022/11/24 02:54:21;;;;;;;;;;;7.70;97.10;;;;;;5087727;28;19955;-73
2022/11/24 02:56:46;;;;;;;;;;;7.80;97.10;;;;;;5086540;28;19999;-74
2022/11/24 02:59:12;;;;;;;;;;;7.80;97.30;;;;;;5088240;28;19912;-74
2022/11/24 03:01:37;;;;;;;;;;;7.80;97.30;;;;;;5071526;28;20631;-73
2022/11/24 03:04:03;;;;;;;;;;;7.80;97.10;;;;;;5065632;28;19913;-73
2022/11/24 03:06:28;;;;;;;;;;;7.80;97.20;;;;;;5066704;28;20361;-74
2022/11/24 03:08:54;;;;;;;;;;;7.80;97.20;;;;;;5065658;28;19912;-74
2022/11/24 03:11:19;;;;;;;;;;;7.80;97.20;;;;;;5067048;28;19928;-74
2022/11/24 03:13:45;;;;;;;;;;;7.80;97.10;;;;;;5067310;28;19959;-74
2022/11/24 03:16:10;;;;;;;;;;;7.80;97.10;;;;;;5087281;28;19915;-74
2022/11/24 03:18:36;;;;;;;;;;;7.80;97.10;;;;;;5087193;28;19991;-74
2022/11/24 03:21:01;;;;;;;;;;;7.80;97.20;;;;;;5087192;28;19918;-74
2022/11/24 03:23:27;;;;;;;;;;;7.80;97.20;;;;;;5075287;28;19912;-74
2022/11/24 03:25:53;;;;;;;;;;;7.80;97.10;;;;;;5081047;28;19912;-74
2022/11/24 03:28:18;;;;;;;;;;;7.80;97.10;;;;;;5087240;28;19970;-74
2022/11/24 03:30:46;;;;;;;;;;;7.80;97.10;;;;;;5076604;28;20596;-74
2022/11/24 03:33:12;;;;;;;;;;;7.80;97.10;;;;;;5065712;28;19913;-74
2022/11/24 03:35:37;;;;;;;;;;;7.80;97.10;;;;;;5065637;28;19977;-74
2022/11/24 03:38:03;;;;;;;;;;;7.80;97.10;;;;;;5053368;28;19913;-74
2022/11/24 03:40:28;;;;;;;;;;;7.80;97.10;;;;;;5048530;28;19923;-74
2022/11/24 03:42:54;;;;;;;;;;;7.80;97.10;;;;;;5066636;28;19913;-74
2022/11/24 03:45:19;;;;;;;;;;;7.80;97.10;;;;;;5066950;28;19940;-74
2022/11/24 03:47:48;;;;;;;;;;;7.80;97.10;;;;;;5067842;28;19937;-74
2022/11/24 03:50:14;;;;;;;;;;;7.80;97.10;;;;;;5078887;28;19955;-74
2022/11/24 03:52:39;;;;;;;;;;;7.80;97.10;;;;;;5086819;28;19959;-74
2022/11/24 03:55:05;;;;;;;;;;;7.80;97.10;;;;;;5086460;28;19966;-73
2022/11/24 03:57:30;;;;;;;;;;;7.80;97.10;;;;;;5087217;28;19919;-74
2022/11/24 03:59:56;;;;;;;;;;;7.80;97.10;;;;;;5081904;28;19912;-74
2022/11/24 04:02:21;;;;;;;;;;;7.80;97.20;;;;;;5066555;28;20355;-74
2022/11/24 04:04:49;;;;;;;;;;;7.80;97.20;;;;;;5073245;28;19932;-74
2022/11/24 04:07:15;;;;;;;;;;;7.80;97.20;;;;;;5066172;28;19994;-73
2022/11/24 04:09:40;;;;;;;;;;;7.80;97.20;;;;;;5066437;28;19912;-73
2022/11/24 04:14:50;;;;;;;;;;;7.70;97.10;;;;;;5081412;28;20052;-74
2022/11/24 04:17:16;;;;;;;;;;;7.70;97.10;;;;;;5087127;28;20007;-74
2022/11/24 04:19:41;;;;;;;;;;;7.80;97.10;;;;;;5086057;28;20424;-74
2022/11/24 04:22:07;;;;;;;;;;;7.80;97.10;;;;;;5061987;28;19912;-74
2022/11/24 04:24:33;;;;;;;;;;;7.70;97.00;;;;;;5068913;28;19920;-74
2022/11/24 04:26:58;;;;;;;;;;;7.80;97.10;;;;;;5069196;28;19958;-74
2022/11/24 04:29:24;;;;;;;;;;;7.80;97.10;;;;;;5066703;28;19989;-74
2022/11/24 04:31:49;;;;;;;;;;;7.80;97.10;;;;;;5064339;28;20455;-74
2022/11/24 04:34:15;;;;;;;;;;;7.80;97.10;;;;;;5065155;28;19920;-73
2022/11/24 04:36:40;;;;;;;;;;;7.80;97.00;;;;;;5065758;28;20368;-74
2022/11/24 04:39:06;;;;;;;;;;;7.80;97.00;;;;;;5071144;28;19916;-74
2022/11/24 04:41:31;;;;;;;;;;;7.80;97.00;;;;;;5054581;28;19916;-74
2022/11/24 04:43:57;;;;;;;;;;;7.80;97.10;;;;;;5065929;28;19918;-73
2022/11/24 04:46:22;;;;;;;;;;;7.80;97.10;;;;;;5071045;28;20319;-74
2022/11/24 04:48:47;;;;;;;;;;;7.80;97.10;;;;;;5086545;28;20011;-74
2022/11/24 04:51:14;;;;;;;;;;;7.80;97.10;;;;;;5086211;28;19919;-73
2022/11/24 04:53:39;;;;;;;;;;;7.80;97.10;;;;;;5086608;28;19916;-74
2022/11/24 04:56:05;;;;;;;;;;;7.80;97.10;;;;;;5086340;28;19913;-73
2022/11/24 04:58:30;;;;;;;;;;;7.80;97.10;;;;;;5086306;28;19986;-74
2022/11/24 05:00:56;;;;;;;;;;;7.80;97.10;;;;;;5076749;28;19924;-74
2022/11/24 05:03:22;;;;;;;;;;;7.80;97.10;;;;;;5069835;28;19978;-74
2022/11/24 05:05:48;;;;;;;;;;;7.80;97.20;;;;;;5068505;28;19916;-74
2022/11/24 05:08:13;;;;;;;;;;;7.80;97.10;;;;;;5055112;28;20273;-73
2022/11/24 05:10:39;;;;;;;;;;;7.90;97.10;;;;;;5049581;28;19916;-73
2022/11/24 05:13:11;;;;;;;;;;;7.90;97.10;;;;;;5049647;28;19916;-74
2022/11/24 05:15:37;;;;;;;;;;;7.90;97.10;;;;;;5049786;28;19916;-74
2022/11/24 05:18:05;;;;;;;;;;;7.90;97.10;;;;;;5057684;28;20504;-73
2022/11/24 05:20:30;;;;;;;;;;;7.90;97.10;;;;;;5089438;28;19908;-73
2022/11/24 05:22:59;;;;;;;;;;;7.90;97.10;;;;;;5088475;28;19942;-74
2022/11/24 05:25:25;;;;;;;;;;;7.90;97.10;;;;;;5089570;28;20327;-73
2022/11/24 05:27:50;;;;;;;;;;;7.90;97.20;;;;;;5089482;28;19916;-74
2022/11/24 05:30:16;;;;;;;;;;;7.90;97.10;;;;;;5080248;28;20014;-73
2022/11/24 05:32:41;;;;;;;;;;;7.90;97.30;;;;;;5083509;28;20656;-74
2022/11/24 05:35:08;;;;;;;;;;;8.00;97.20;;;;;;5089788;28;19908;-74
2022/11/24 05:37:34;;;;;;;;;;;8.00;97.20;;;;;;5080233;28;20569;-74
2022/11/24 05:39:59;;;;;;;;;;;8.00;97.10;;;;;;5067522;28;19985;-74
2022/11/24 05:42:40;;;;;;;;;;;8.00;97.10;;;;;;5069160;28;19912;-74
2022/11/24 05:45:12;;;;;;;;;;;8.00;97.20;;;;;;5068721;28;19919;-74
2022/11/24 05:47:39;;;;;;;;;;;7.90;97.10;;;;;;5048817;28;20018;-73
2022/11/24 05:50:04;;;;;;;;;;;8.00;97.20;;;;;;5067937;28;19912;-74
2022/11/24 05:52:30;;;;;;;;;;;8.00;97.20;;;;;;5088777;28;19911;-74
2022/11/24 05:54:55;;;;;;;;;;;8.00;97.20;;;;;;5088905;28;19919;-74
2022/11/24 05:57:21;;;;;;;;;;;8.00;97.10;;;;;;5089195;28;19924;-74
2022/11/24 05:59:46;;;;;;;;;;;8.00;97.10;;;;;;5085471;28;20003;-74
2022/11/24 06:02:12;;;;;;;;;;;8.00;97.10;;;;;;5069757;28;19917;-74
2022/11/24 06:04:38;;;;;;;;;;;8.00;97.00;;;;;;5068786;28;19919;-74
2022/11/24 06:07:05;;;;;;;;;;;8.00;97.10;;;;;;5063390;28;19917;-74
2022/11/24 06:09:31;;;;;;;;;;;8.00;97.20;;;;;;5060135;28;19928;-74
2022/11/24 06:11:56;;;;;;;;;;;8.00;97.10;;;;;;5067256;28;19920;-74
2022/11/24 06:14:22;;;;;;;;;;;8.00;97.10;;;;;;5068363;28;20659;-74
2022/11/24 06:16:47;;;;;;;;;;;8.00;97.10;;;;;;5068319;28;19919;-74
2022/11/24 06:19:13;;;;;;;;;;;8.00;97.10;;;;;;5078642;28;20016;-74
2022/11/24 06:21:38;;;;;;;;;;;8.00;97.10;;;;;;5088123;28;20526;-74
2022/11/24 06:24:04;;;;;;;;;;;8.00;97.10;;;;;;5087075;28;20448;-74
2022/11/24 06:26:29;;;;;;;;;;;8.00;97.10;;;;;;5087060;28;20006;-74
2022/11/24 06:28:55;;;;;;;;;;;8.00;97.10;;;;;;5087110;28;19908;-74
2022/11/24 06:31:20;;;;;;;;;;;8.10;97.10;;;;;;5070530;28;20019;-74
2022/11/24 06:33:46;;;;;;;;;;;8.10;97.20;;;;;;5066790;28;19919;-75
2022/11/24 06:36:13;;;;;;;;;;;8.00;97.20;;;;;;5081303;28;20050;-75
2022/11/24 06:38:38;;;;;;;;;;;8.00;97.10;;;;;;5068828;28;19912;-73
2022/11/24 06:41:05;;;;;;;;;;;8.00;97.20;;;;;;5067474;28;19915;-74
2022/11/24 06:43:31;;;;;;;;;;;8.00;97.30;;;;;;5067744;28;20617;-74
2022/11/24 06:45:57;;;;;;;;;;;8.10;97.10;;;;;;5067753;28;19912;-73
2022/11/24 06:48:23;;;;;;;;;;;8.10;97.20;;;;;;5067697;28;19944;-74
2022/11/24 06:50:49;;;;;;;;;;;8.10;97.30;;;;;;5079570;28;20544;-74
2022/11/24 06:53:14;;;;;;;;;;;8.00;97.20;;;;;;5067963;28;19912;-74
2022/11/24 06:55:40;;;;;;;;;;;8.00;97.30;;;;;;5079718;28;20035;-74
2022/11/24 06:58:05;;;;;;;;;;;8.00;97.30;;;;;;5087751;28;19912;-74
2022/11/24 07:00:31;;;;;;;;;;;8.00;97.30;;;;;;5077855;28;19917;-74
2022/11/24 07:02:59;;;;;;;;;;;8.00;97.30;;;;;;5067848;28;19912;-74
2022/11/24 07:05:25;;;;;;;;;;;8.00;97.30;;;;;;5067617;28;19913;-74
2022/11/24 07:07:51;;;;;;;;;;;8.00;97.40;;;;;;5065469;28;19927;-74
2022/11/24 07:10:16;;;;;;;;;;;8.00;97.30;;;;;;5086976;28;20006;-74
2022/11/24 07:12:41;;;;;;;;;;;8.00;97.30;;;;;;5085999;28;19927;-74
2022/11/24 07:15:07;;;;;;;;;;;8.00;97.30;;;;;;5087939;28;19908;-73
2022/11/24 07:17:37;;;;;;;;;;;8.10;97.40;;;;;;5087480;28;19946;-74
2022/11/24 07:20:05;;;;;;;;;;;8.00;97.30;;;;;;5087219;28;19914;-74
2022/11/24 07:22:31;;;;;;;;;;;8.00;97.30;;;;;;5087293;28;19943;-74
2022/11/24 07:24:57;;;;;;;;;;;8.00;97.30;;;;;;5086233;28;20353;-74
2022/11/24 07:27:22;;;;;;;;;;;8.00;97.30;;;;;;5087531;28;19923;-74
2022/11/24 07:29:48;;;;;;;;;;;8.00;97.30;;;;;;5082883;28;19924;-74
2022/11/24 07:32:13;;;;;;;;;;;8.00;97.30;;;;;;5048004;28;19963;-74
2022/11/24 07:34:38;;;;;;;;;;;8.00;97.30;;;;;;5047062;28;19909;-74
2022/11/24 07:37:04;;;;;;;;;;;8.00;97.30;;;;;;5047090;28;19940;-74
2022/11/24 07:39:29;;;;;;;;;;;8.00;97.30;;;;;;5046986;28;19917;-74
2022/11/24 07:41:56;;;;;;;;;;;8.00;97.30;;;;;;5047425;28;19909;-74
2022/11/24 07:44:22;;;;;;;;;;;8.10;97.30;;;;;;5064066;28;19918;-74
2022/11/24 07:46:50;;;;;;;;;;;8.10;97.30;;;;;;5067097;28;19958;-74
2022/11/24 07:49:16;;;;;;;;;;;8.10;97.30;;;;;;5066952;28;19917;-74
2022/11/24 07:51:41;;;;;;;;;;;8.10;97.30;;;;;;5068666;28;19916;-74
2022/11/24 07:54:07;;;;;;;;;;;8.10;97.20;;;;;;5066834;28;19912;-74
2022/11/24 07:56:32;;;;;;;;;;;8.10;97.20;;;;;;5086115;28;20483;-74
2022/11/24 07:58:58;;;;;;;;;;;8.10;97.20;;;;;;5061313;28;19959;-74
2022/11/24 08:01:23;;;;;;;;;;;8.10;97.20;;;;;;5063351;28;19916;-74
2022/11/24 08:03:49;;;;;;;;;;;8.10;97.20;;;;;;5066758;28;19955;-74
2022/11/24 08:06:14;;;;;;;;;;;8.10;97.20;;;;;;5066788;28;20607;-74
2022/11/24 08:08:40;;;;;;;;;;;8.10;97.20;;;;;;5048323;28;20000;-74
2022/11/24 08:11:07;;;;;;;;;;;8.20;97.20;;;;;;5056439;28;19916;-74
2022/11/24 08:13:32;;;;;;;;;;;8.10;97.20;;;;;;5072115;28;20605;-73
2022/11/24 08:15:58;;;;;;;;;;;8.10;97.20;;;;;;5086925;28;20015;-74
2022/11/24 08:18:24;;;;;;;;;;;8.10;97.10;;;;;;5086820;28;19908;-74
2022/11/24 08:20:49;;;;;;;;;;;8.10;97.10;;;;;;5086843;28;20481;-74
2022/11/24 08:23:15;;;;;;;;;;;8.10;97.20;;;;;;5086762;28;20005;-74
2022/11/24 08:25:40;;;;;;;;;;;8.20;97.10;;;;;;5086729;28;19958;-74
2022/11/24 08:28:06;;;;;;;;;;;8.20;97.20;;;;;;5086647;28;20493;-74
2022/11/24 08:30:31;;;;;;;;;;;8.20;97.20;;;;;;5069585;28;19940;-74
2022/11/24 08:32:58;;;;;;;;;;;8.20;97.20;;;;;;5046789;28;19919;-74
2022/11/24 08:35:23;;;;;;;;;;;8.20;97.10;;;;;;5048279;28;19919;-74
2022/11/24 08:37:49;;;;;;;;;;;8.20;97.10;;;;;;5050396;28;20453;-74
2022/11/24 08:40:14;;;;;;;;;;;8.20;97.10;;;;;;5050018;28;19912;-74
2022/11/24 08:42:40;;;;;;;;;;;8.20;97.10;;;;;;5053448;28;20007;-74
2022/11/24 08:45:06;;;;;;;;;;;8.30;97.10;;;;;;5070477;28;19908;-74
2022/11/24 08:47:31;;;;;;;;;;;8.30;97.10;;;;;;5086976;28;20015;-74
2022/11/24 08:49:57;;;;;;;;;;;8.30;97.00;;;;;;5090003;28;20392;-74
2022/11/24 08:52:22;;;;;;;;;;;8.30;97.10;;;;;;5090432;28;19915;-74
2022/11/24 08:54:49;;;;;;;;;;;8.30;97.00;;;;;;5090356;28;19912;-74
2022/11/24 08:57:14;;;;;;;;;;;8.30;97.00;;;;;;5090234;28;20481;-74
2022/11/24 08:59:40;;;;;;;;;;;8.30;97.00;;;;;;5087113;28;19958;-74
2022/11/24 09:02:05;;;;;;;;;;;8.30;96.90;;;;;;5071486;28;20007;-74
2022/11/24 09:04:31;;;;;;;;;;;8.30;97.20;;;;;;5070141;28;19916;-74
2022/11/24 09:06:57;;;;;;;;;;;8.40;97.00;;;;;;5065529;28;19924;-74
2022/11/24 09:09:22;;;;;;;;;;;8.40;97.00;;;;;;5049550;28;19912;-74
2022/11/24 09:11:48;;;;;;;;;;;8.40;97.00;;;;;;5049754;28;20425;-74
2022/11/24 09:14:14;;;;;;;;;;;8.30;97.00;;;;;;5053671;28;19923;-74
2022/11/24 09:16:39;;;;;;;;;;;8.40;97.10;;;;;;5069895;28;20607;-74
2022/11/24 09:19:06;;;;;;;;;;;8.30;97.10;;;;;;5069518;28;19965;-74
2022/11/24 09:21:35;;;;;;;;;;;8.40;97.10;;;;;;5087857;28;20003;-74
2022/11/24 09:24:01;;;;;;;;;;;8.40;97.10;;;;;;5089627;28;20527;-74
2022/11/24 09:26:27;;;;;;;;;;;8.40;97.10;;;;;;5089591;28;19912;-75
2022/11/24 09:28:54;;;;;;;;;;;8.40;97.10;;;;;;5088672;28;19920;-74
2022/11/24 09:31:21;;;;;;;;;;;8.40;97.00;;;;;;5060583;28;19916;-74
2022/11/24 09:33:47;;;;;;;;;;;8.40;97.00;;;;;;5048617;28;19913;-74
2022/11/24 09:36:12;;;;;;;;;;;8.40;97.00;;;;;;5049185;28;19932;-74
2022/11/24 09:38:38;;;;;;;;;;;8.40;97.00;;;;;;5049412;28;19912;-74
2022/11/24 09:41:16;;;;;;;;;;;8.50;97.20;;;;;;5049003;28;20385;-74
2022/11/24 09:43:44;;;;;;;;;;;8.50;97.10;;;;;;5063960;28;19927;-74
2022/11/24 09:46:09;;;;;;;;;;;8.50;97.10;;;;;;5068901;28;19954;-74
2022/11/24 09:48:37;;;;;;;;;;;8.50;97.00;;;;;;5069142;28;19917;-74
2022/11/24 09:51:03;;;;;;;;;;;8.60;97.10;;;;;;5083548;28;20660;-74
2022/11/24 09:53:36;;;;;;;;;;;8.60;97.10;;;;;;5069334;28;19912;-74
2022/11/24 09:56:31;;;;;;;;;;;8.60;97.00;;;;;;5083853;28;19969;-74
2022/11/24 09:59:01;;;;;;;;;;;8.60;97.10;;;;;;5052657;28;19924;-74
2022/11/24 10:01:35;;;;;;;;;;;8.70;97.00;;;;;;5066033;28;19918;-74
2022/11/24 10:04:01;;;;;;;;;;;8.70;97.00;;;;;;5068771;28;19912;-73
2022/11/24 10:06:37;;;;;;;;;;;8.70;97.00;;;;;;5068646;28;20431;-74
2022/11/24 10:09:08;;;;;;;;;;;8.70;97.10;;;;;;5048628;28;19913;-74
2022/11/24 10:11:43;;;;;;;;;;;8.70;97.00;;;;;;5067211;28;19920;-74
2022/11/24 10:14:27;;;;;;;;;;;8.70;97.10;;;;;;5087898;28;19962;-74
2022/11/24 10:17:11;;;;;;;;;;;8.70;97.10;;;;;;5077424;28;19940;-74
2022/11/24 10:19:39;;;;;;;;;;;8.70;97.30;;;;;;5070857;28;19916;-74
2022/11/24 10:22:13;;;;;;;;;;;8.70;97.00;;;;;;5088664;28;19943;-74
2022/11/24 10:24:47;;;;;;;;;;;8.80;97.00;;;;;;5088045;28;19960;-74
2022/11/24 10:27:16;;;;;;;;;;;8.80;97.00;;;;;;5088393;28;19916;-74
2022/11/24 10:29:42;;;;;;;;;;;8.80;97.00;;;;;;5085360;28;19926;-74
2022/11/24 10:32:16;;;;;;;;;;;8.80;97.10;;;;;;5050256;28;19912;-74
2022/11/24 10:34:49;;;;;;;;;;;8.80;97.10;;;;;;5048012;28;19919;-74
2022/11/24 10:37:18;;;;;;;;;;;8.80;97.10;;;;;;5048121;28;20002;-74
2022/11/24 10:39:51;;;;;;;;;;;8.80;97.20;;;;;;5065024;28;19959;-73
2022/11/24 10:42:24;;;;;;;;;;;8.80;97.00;;;;;;5088362;28;19996;-74
2022/11/24 10:45:02;;;;;;;;;;;8.80;97.00;;;;;;5057647;28;20434;-74
2022/11/24 10:47:29;;;;;;;;;;;8.90;97.30;;;;;;5067773;28;19923;-74
2022/11/24 10:49:54;;;;;;;;;;;8.90;97.00;;;;;;5072738;28;20249;-73
2022/11/24 10:52:21;;;;;;;;;;;8.90;96.90;;;;;;5088059;28;19965;-74
2022/11/24 10:54:57;;;;;;;;;;;9.00;96.90;;;;;;5087552;28;20613;-74
2022/11/24 10:57:40;;;;;;;;;;;9.00;97.00;;;;;;5087493;28;19913;-74
2022/11/24 11:00:26;;;;;;;;;;;9.00;96.90;;;;;;5081158;28;19990;-74
2022/11/24 11:03:18;;;;;;;;;;;9.10;96.80;;;;;;5068101;28;19963;-74
2022/11/24 11:05:47;;;;;;;;;;;9.10;96.70;;;;;;5074075;28;19913;-74
2022/11/24 11:08:12;;;;;;;;;;;9.20;96.90;;;;;;5073213;28;19927;-73
2022/11/24 11:10:38;;;;;;;;;;;9.20;96.60;;;;;;5087306;28;20481;-73
2022/11/24 11:13:24;;;;;;;;;;;9.20;96.60;;;;;;5087375;28;19916;-74
2022/11/24 11:15:49;;;;;;;;;;;9.30;96.80;;;;;;5087852;28;19908;-74
2022/11/24 11:18:16;;;;;;;;;;;9.30;96.80;;;;;;5087746;28;20387;-74
2022/11/24 11:20:48;;;;;;;;;;;9.30;96.60;;;;;;5087213;28;20003;-73
2022/11/24 11:23:18;;;;;;;;;;;9.30;96.90;;;;;;5086790;28;19920;-73
2022/11/24 11:25:43;;;;;;;;;;;9.30;96.60;;;;;;5087546;28;20330;-74
2022/11/24 11:28:38;;;;;;;;;;;9.40;96.50;;;;;;5087288;28;19920;-74
2022/11/24 11:31:05;;;;;;;;;;;9.40;96.60;;;;;;5067410;28;19917;-74
2022/11/24 11:33:32;;;;;;;;;;;9.40;96.50;;;;;;5067298;28;19909;-74
2022/11/24 11:36:00;;;;;;;;;;;9.50;96.40;;;;;;5072845;28;19916;-74
2022/11/24 11:38:30;;;;;;;;;;;9.50;96.50;;;;;;5070896;28;19912;-74
2022/11/24 11:40:55;;;;;;;;;;;9.50;96.50;;;;;;5066825;28;19966;-74
2022/11/24 11:43:25;;;;;;;;;;;9.50;96.60;;;;;;5066947;28;20320;-74
2022/11/24 11:46:09;;;;;;;;;;;9.50;96.30;;;;;;5067056;28;20547;-74
2022/11/24 11:48:35;;;;;;;;;;;9.50;96.30;;;;;;5067173;28;19939;-73
2022/11/24 11:51:22;;;;;;;;;;;9.60;96.40;;;;;;5080398;28;19916;-73
2022/11/24 11:54:02;;;;;;;;;;;9.60;96.40;;;;;;5086887;28;19980;-74
2022/11/24 11:56:43;;;;;;;;;;;9.60;96.30;;;;;;5087266;28;19912;-73
2022/11/24 11:59:11;;;;;;;;;;;9.60;96.40;;;;;;5066680;28;19916;-74
2022/11/24 12:01:43;;;;;;;;;;;9.70;96.40;;;;;;5063163;28;20203;-73
2022/11/24 12:04:27;;;;;;;;;;;9.70;96.20;;;;;;5067794;28;19965;-73
2022/11/24 12:07:04;;;;;;;;;;;9.70;96.30;;;;;;5066664;28;19985;-73
2022/11/24 12:09:33;;;;;;;;;;;9.70;96.30;;;;;;5067037;28;19912;-73
2022/11/24 12:11:58;;;;;;;;;;;9.70;96.30;;;;;;5070810;28;19928;-73
2022/11/24 12:14:24;;;;;;;;;;;9.70;96.40;;;;;;5071032;28;19920;-74
2022/11/24 12:16:55;;;;;;;;;;;9.70;96.40;;;;;;5070914;28;20015;-73
2022/11/24 12:19:24;;;;;;;;;;;9.60;96.40;;;;;;5079129;28;20361;-73
2022/11/24 12:22:04;;;;;;;;;;;9.70;96.50;;;;;;5070823;28;20003;-74
2022/11/24 12:24:41;;;;;;;;;;;9.60;96.50;;;;;;5072850;28;19916;-73
2022/11/24 12:27:07;;;;;;;;;;;9.60;96.50;;;;;;5090749;28;19916;-73
2022/11/24 12:29:35;;;;;;;;;;;9.70;96.60;;;;;;5088938;28;19919;-73
2022/11/24 12:32:10;;;;;;;;;;;9.60;96.50;;;;;;5072081;28;19916;-73
2022/11/24 12:34:54;;;;;;;;;;;9.60;96.50;;;;;;5090814;28;19912;-73
2022/11/24 12:37:32;;;;;;;;;;;9.60;96.50;;;;;;5083281;28;19919;-74
2022/11/24 12:40:03;;;;;;;;;;;9.60;96.50;;;;;;5070088;28;20753;-73
2022/11/24 12:42:35;;;;;;;;;;;9.60;96.60;;;;;;5070282;28;19955;-73
2022/11/24 12:45:07;;;;;;;;;;;9.60;96.50;;;;;;5070425;28;19947;-73
2022/11/24 12:47:45;;;;;;;;;;;9.60;96.50;;;;;;5081229;28;19924;-73
2022/11/24 12:50:17;;;;;;;;;;;9.60;96.60;;;;;;5078363;28;19919;-73
2022/11/24 12:52:46;;;;;;;;;;;9.60;96.60;;;;;;5090404;28;19912;-73
2022/11/24 12:55:19;;;;;;;;;;;9.60;96.60;;;;;;5090514;28;19916;-73
2022/11/24 12:57:54;;;;;;;;;;;9.60;96.70;;;;;;5090329;28;20034;-73
2022/11/24 13:00:21;;;;;;;;;;;9.60;96.70;;;;;;5083191;28;19912;-73
2022/11/24 13:03:06;;;;;;;;;;;9.60;96.70;;;;;;5089202;28;19916;-74
2022/11/24 13:05:31;;;;;;;;;;;9.60;96.70;;;;;;5077866;28;19916;-73
2022/11/24 13:07:59;;;;;;;;;;;9.60;96.80;;;;;;5057374;28;20468;-73
2022/11/24 13:10:24;;;;;;;;;;;9.60;96.90;;;;;;5049488;28;20385;-73
2022/11/24 13:13:00;;;;;;;;;;;9.50;96.90;;;;;;5049821;28;19921;-73
2022/11/24 13:15:26;;;;;;;;;;;9.50;96.90;;;;;;5060007;28;19917;-73
2022/11/24 13:17:52;;;;;;;;;;;9.60;97.00;;;;;;5069727;28;20308;-74
2022/11/24 13:20:18;;;;;;;;;;;9.50;96.90;;;;;;5077439;28;19919;-73
2022/11/24 13:22:49;;;;;;;;;;;9.50;96.90;;;;;;5089859;28;19912;-73
2022/11/24 13:25:17;;;;;;;;;;;9.50;96.90;;;;;;5089591;28;19912;-73
2022/11/24 13:27:44;;;;;;;;;;;9.50;96.80;;;;;;5089763;28;19919;-73
2022/11/24 13:30:28;;;;;;;;;;;9.50;96.80;;;;;;5080159;28;19989;-74
2022/11/24 13:33:01;;;;;;;;;;;9.50;96.70;;;;;;5049514;28;19917;-73
2022/11/24 13:35:26;;;;;;;;;;;9.50;96.70;;;;;;5047937;28;19913;-73
2022/11/24 13:37:52;;;;;;;;;;;9.50;96.70;;;;;;5049268;28;19920;-74
2022/11/24 13:40:21;;;;;;;;;;;9.50;96.80;;;;;;5049058;28;19919;-73
2022/11/24 13:43:02;;;;;;;;;;;9.50;96.80;;;;;;5054587;28;19999;-73
2022/11/24 13:45:40;;;;;;;;;;;9.50;96.80;;;;;;5088926;28;19916;-74
2022/11/24 13:48:18;;;;;;;;;;;9.50;96.80;;;;;;5089412;28;20435;-74
2022/11/24 13:50:49;;;;;;;;;;;9.50;96.80;;;;;;5089083;28;20291;-73
2022/11/24 13:53:15;;;;;;;;;;;9.40;96.70;;;;;;5073962;28;19909;-74
2022/11/24 13:55:50;;;;;;;;;;;9.50;96.70;;;;;;5080872;28;20045;-73
2022/11/24 13:58:26;;;;;;;;;;;9.50;96.80;;;;;;5075529;28;20298;-74
2022/11/24 14:01:09;;;;;;;;;;;9.50;96.80;;;;;;5067123;28;20110;-73
2022/11/24 14:03:42;;;;;;;;;;;9.50;96.80;;;;;;5068895;28;19912;-73
2022/11/24 14:06:20;;;;;;;;;;;9.50;96.70;;;;;;5068857;28;20003;-73
2022/11/24 14:08:46;;;;;;;;;;;9.50;96.70;;;;;;5068499;28;19926;-73
2022/11/24 14:11:13;;;;;;;;;;;9.50;96.70;;;;;;5071056;28;20007;-73
2022/11/24 14:13:39;;;;;;;;;;;9.50;96.80;;;;;;5088833;28;20543;-74
2022/11/24 14:16:04;;;;;;;;;;;9.50;96.80;;;;;;5089012;28;20019;-73
2022/11/24 14:18:31;;;;;;;;;;;9.40;96.80;;;;;;5088738;28;20273;-73
2022/11/24 14:20:57;;;;;;;;;;;9.40;96.80;;;;;;5070945;28;19956;-74
2022/11/24 14:23:23;;;;;;;;;;;9.40;96.80;;;;;;5068267;28;19908;-73
2022/11/24 14:25:49;;;;;;;;;;;9.40;96.80;;;;;;5080680;28;19920;-73
2022/11/24 14:28:25;;;;;;;;;;;9.40;96.90;;;;;;5088291;28;19920;-74
2022/11/24 14:31:05;;;;;;;;;;;9.40;96.80;;;;;;5068121;28;19966;-73
2022/11/24 14:33:30;;;;;;;;;;;9.40;96.90;;;;;;5046670;28;20346;-73
2022/11/24 14:35:56;;;;;;;;;;;9.40;96.90;;;;;;5047398;28;19966;-74
2022/11/24 14:38:21;;;;;;;;;;;9.40;96.90;;;;;;5063227;28;19923;-73